Time;durP1;ratioP1;P1;durP2;ratioP2;P2;SDS_P1;SDS_P2;PMS_P1;PMS_P2;Temp;Humidity;BMP_temperature;BMP_pressure;BME280_temperature;BME280_humidity;BME280_pressure;Samples;Min_cycle;Max_cycle;Signal;HPM_P1;HPM_P2
2022/06/21 00:00:50;;;;;;;6.20;2.38;;;;;;;;;;5067642;28;20035;-57
2022/06/21 00:03:18;;;;;;;3.97;2.65;;;;;;;;;;5065356;28;20037;-57
2022/06/21 00:05:45;;;;;;;4.30;2.50;;;;;;;;;;5068028;28;20060;-57
2022/06/21 00:08:15;;;;;;;5.03;2.58;;;;;;;;;;5070241;28;20025;-58
2022/06/21 00:10:41;;;;;;;3.53;2.70;;;;;;;;;;5062484;28;20552;-58
2022/06/21 00:13:10;;;;;;;6.03;2.33;;;;;;;;;;5073531;28;20082;-58
2022/06/21 00:15:36;;;;;;;4.40;2.50;;;;;;;;;;5071258;28;20028;-57
2022/06/21 00:18:02;;;;;;;4.55;2.42;;;;;;;;;;5070021;28;20179;-58
2022/06/21 00:20:28;;;;;;;7.00;2.78;;;;;;;;;;5067050;28;20057;-55
2022/06/21 00:22:54;;;;;;;5.75;2.53;;;;;;;;;;5068116;28;20087;-58
2022/06/21 00:25:23;;;;;;;6.15;2.90;;;;;;;;;;5067873;28;20529;-58
2022/06/21 00:27:49;;;;;;;3.05;2.38;;;;;;;;;;5067232;28;20043;-58
2022/06/21 00:30:15;;;;;;;3.45;2.58;;;;;;;;;;5066216;28;20446;-58
2022/06/21 00:32:41;;;;;;;5.63;3.13;;;;;;;;;;5071727;28;20036;-57
2022/06/21 00:35:12;;;;;;;6.90;2.83;;;;;;;;;;5070801;28;20032;-58
2022/06/21 00:37:39;;;;;;;6.15;2.92;;;;;;;;;;5070106;28;20040;-58
2022/06/21 00:40:23;;;;;;;9.70;3.30;;;;;;;;;;5068064;28;20090;-58
2022/06/21 00:42:49;;;;;;;;;;;;;;;;;;5069616;28;20036;-58
2022/06/21 00:45:31;;;;;;;5.88;3.05;;;;;;;;;;5065876;28;20373;-58
2022/06/21 00:47:59;;;;;;;5.43;3.38;;;;;;;;;;5069200;28;20479;-57
2022/06/21 00:50:32;;;;;;;7.63;3.53;;;;;;;;;;5068371;28;20466;-58
2022/06/21 00:52:58;;;;;;;;;;;;;;;;;;5056516;28;20029;-57
2022/06/21 00:55:44;;;;;;;11.25;3.60;;;;;;;;;;5068073;28;19966;-57
2022/06/21 00:58:12;;;;;;;5.10;3.03;;;;;;;;;;5066769;28;20035;-57
2022/06/21 01:00:42;;;;;;;5.25;3.55;;;;;;;;;;5067222;28;20046;-58
2022/06/21 01:03:14;;;;;;;4.53;3.60;;;;;;;;;;5059680;28;20032;-58
2022/06/21 01:05:43;;;;;;;5.75;3.47;;;;;;;;;;5068998;28;20027;-58
2022/06/21 01:08:11;;;;;;;6.93;3.45;;;;;;;;;;5066702;28;20028;-56
2022/06/21 01:10:37;;;;;;;8.73;3.72;;;;;;;;;;5068688;28;20017;-58
2022/06/21 01:13:09;;;;;;;9.88;3.25;;;;;;;;;;5064929;28;20476;-57
2022/06/21 01:15:37;;;;;;;8.52;3.80;;;;;;;;;;5072266;28;20032;-57
2022/06/21 01:18:05;;;;;;;7.25;3.78;;;;;;;;;;5067428;22;20087;-83
2022/06/21 01:20:33;;;;;;;6.97;4.32;;;;;;;;;;5018111;28;20030;-83
2022/06/21 01:23:18;;;;;;;6.00;3.25;;;;;;;;;;5026282;28;20032;-83
2022/06/21 01:25:47;;;;;;;7.65;3.85;;;;;;;;;;5113357;23;20140;-53
2022/06/21 01:28:13;;;;;;;7.28;3.60;;;;;;;;;;5051473;28;20017;-51
2022/06/21 01:30:39;;;;;;;6.07;4.13;;;;;;;;;;5051296;28;20084;-52
2022/06/21 01:33:05;;;;;;;8.60;3.63;;;;;;;;;;5050637;28;20033;-52
2022/06/21 01:35:34;;;;;;;7.07;3.78;;;;;;;;;;5051650;28;20108;-52
2022/06/21 01:38:01;;;;;;;4.15;3.38;;;;;;;;;;5052879;28;20033;-52
2022/06/21 01:40:29;;;;;;;7.10;3.83;;;;;;;;;;5051632;28;20033;-52
2022/06/21 01:43:00;;;;;;;7.68;3.63;;;;;;;;;;5052192;28;20138;-52
2022/06/21 01:45:28;;;;;;;6.82;3.72;;;;;;;;;;5052398;28;20167;-52
2022/06/21 01:47:58;;;;;;;7.85;3.65;;;;;;;;;;5041315;28;20667;-52
2022/06/21 01:50:24;;;;;;;11.13;3.88;;;;;;;;;;5051332;28;20039;-55
2022/06/21 01:52:52;;;;;;;7.65;3.72;;;;;;;;;;5051480;28;20373;-53
2022/06/21 01:55:24;;;;;;;18.45;4.00;;;;;;;;;;5053769;28;20037;-52
2022/06/21 01:57:51;;;;;;;6.63;2.90;;;;;;;;;;5051111;28;20062;-53
2022/06/21 02:00:18;;;;;;;11.20;4.18;;;;;;;;;;5050968;28;20039;-51
2022/06/21 02:02:47;;;;;;;7.30;3.72;;;;;;;;;;5051185;28;20028;-50
2022/06/21 02:05:16;;;;;;;5.57;3.10;;;;;;;;;;5049242;28;20035;-53
2022/06/21 02:07:52;;;;;;;9.35;3.60;;;;;;;;;;5050904;28;20629;-51
2022/06/21 02:10:23;;;;;;;3.85;2.97;;;;;;;;;;5049106;28;20032;-51
2022/06/21 02:12:51;;;;;;;6.35;3.63;;;;;;;;;;5051345;28;20036;-49
2022/06/21 02:15:34;;;;;;;7.82;3.75;;;;;;;;;;5053115;28;20433;-50
2022/06/21 02:18:01;;;;;;;6.88;3.72;;;;;;;;;;5048352;28;20090;-50
2022/06/21 02:20:38;;;;;;;7.43;3.58;;;;;;;;;;5051910;28;20376;-51
2022/06/21 02:23:05;;;;;;;4.20;3.03;;;;;;;;;;5053304;28;20035;-49
2022/06/21 02:25:31;;;;;;;5.78;3.05;;;;;;;;;;5053783;28;20140;-53
2022/06/21 02:28:01;;;;;;;7.25;3.40;;;;;;;;;;5051229;28;20029;-51
2022/06/21 02:30:29;;;;;;;8.32;3.80;;;;;;;;;;5050772;28;20029;-52
2022/06/21 02:32:56;;;;;;;9.98;4.00;;;;;;;;;;5049545;28;20053;-51
2022/06/21 02:35:43;;;;;;;7.28;3.38;;;;;;;;;;5051856;28;20028;-53
2022/06/21 02:38:13;;;;;;;9.45;3.40;;;;;;;;;;5049723;28;20456;-52
2022/06/21 02:40:44;;;;;;;6.97;3.28;;;;;;;;;;5047561;28;20021;-53
2022/06/21 02:43:13;;;;;;;7.65;3.75;;;;;;;;;;5034208;28;20151;-51
2022/06/21 02:45:48;;;;;;;10.65;3.95;;;;;;;;;;5051420;28;20166;-54
2022/06/21 02:48:17;;;;;;;10.82;3.97;;;;;;;;;;5048075;28;20028;-53
2022/06/21 02:50:45;;;;;;;9.57;3.58;;;;;;;;;;5050275;28;20463;-51
2022/06/21 02:53:20;;;;;;;8.80;3.75;;;;;;;;;;5050121;28;20070;-52
2022/06/21 02:55:50;;;;;;;6.82;3.45;;;;;;;;;;5050320;28;20075;-53
2022/06/21 02:58:19;;;;;;;6.38;3.80;;;;;;;;;;5048286;28;20032;-52
2022/06/21 03:00:45;;;;;;;5.00;3.28;;;;;;;;;;5048803;28;20033;-49
2022/06/21 03:03:15;;;;;;;6.15;4.13;;;;;;;;;;5050950;28;20029;-50
2022/06/21 03:05:41;;;;;;;9.38;4.50;;;;;;;;;;5050373;28;20029;-51
2022/06/21 03:08:08;;;;;;;6.72;4.18;;;;;;;;;;5050459;28;20044;-53
2022/06/21 03:10:36;;;;;;;11.88;4.20;;;;;;;;;;5039165;28;20060;-49
2022/06/21 03:13:07;;;;;;;5.85;3.45;;;;;;;;;;5048934;28;20728;-51
2022/06/21 03:15:34;;;;;;;9.52;4.43;;;;;;;;;;5049711;28;20362;-52
2022/06/21 03:18:04;;;;;;;8.82;3.83;;;;;;;;;;5050210;28;20104;-52
2022/06/21 03:20:30;;;;;;;7.18;3.83;;;;;;;;;;5049449;28;20021;-52
2022/06/21 03:22:57;;;;;;;6.82;3.60;;;;;;;;;;5050584;28;20037;-48
2022/06/21 03:25:25;;;;;;;6.50;3.75;;;;;;;;;;5025006;28;20041;-50
2022/06/21 03:27:56;;;;;;;9.55;4.03;;;;;;;;;;5030639;28;20555;-49
2022/06/21 03:30:26;;;;;;;9.68;4.30;;;;;;;;;;5029866;28;20044;-49
2022/06/21 03:32:53;;;;;;;8.65;3.90;;;;;;;;;;5029846;28;20036;-50
2022/06/21 03:35:20;;;;;;;6.35;3.83;;;;;;;;;;5026694;28;20108;-50
2022/06/21 03:37:47;;;;;;;10.73;3.67;;;;;;;;;;5029191;28;20035;-51
2022/06/21 03:43:11;;;;;;;8.63;4.00;;;;;;;;;;5028048;28;20141;-50
2022/06/21 03:45:38;;;;;;;11.43;4.45;;;;;;;;;;5030637;28;20120;-52
2022/06/21 03:48:04;;;;;;;7.68;3.80;;;;;;;;;;5028361;28;20436;-51
2022/06/21 03:50:34;;;;;;;8.18;4.30;;;;;;;;;;5028470;28;20022;-52
2022/06/21 03:53:15;;;;;;;11.52;4.03;;;;;;;;;;5028799;28;20025;-50
2022/06/21 03:55:50;;;;;;;12.02;4.53;;;;;;;;;;5027648;28;20064;-49
2022/06/21 03:58:22;;;;;;;9.48;4.47;;;;;;;;;;5029523;28;20021;-52
2022/06/21 04:01:01;;;;;;;8.35;4.20;;;;;;;;;;5023780;28;20550;-53
2022/06/21 04:03:30;;;;;;;8.35;4.30;;;;;;;;;;5029970;28;20467;-52
2022/06/21 04:06:03;;;;;;;8.05;4.15;;;;;;;;;;5031536;28;20491;-50
2022/06/21 04:08:41;;;;;;;14.52;4.65;;;;;;;;;;5029703;28;20029;-51
2022/06/21 04:11:21;;;;;;;14.35;5.90;;;;;;;;;;5027313;28;20082;-54
2022/06/21 04:13:51;;;;;;;13.80;4.20;;;;;;;;;;5030596;28;20080;-55
2022/06/21 04:16:19;;;;;;;9.82;4.25;;;;;;;;;;5025311;28;21860;-50
2022/06/21 04:18:49;;;;;;;10.27;3.83;;;;;;;;;;5026088;28;20029;-51
2022/06/21 04:21:23;;;;;;;7.32;4.07;;;;;;;;;;5025659;28;20025;-50
2022/06/21 04:23:52;;;;;;;7.65;4.30;;;;;;;;;;5024988;28;20049;-52
2022/06/21 04:26:21;;;;;;;13.82;4.47;;;;;;;;;;5030208;28;20056;-49
2022/06/21 04:28:50;;;;;;;9.75;3.95;;;;;;;;;;5027948;28;20035;-53
2022/06/21 04:31:42;;;;;;;9.05;4.10;;;;;;;;;;5026680;28;20502;-53
2022/06/21 04:34:19;;;;;;;7.97;4.63;;;;;;;;;;5015503;28;20045;-49
2022/06/21 04:36:58;;;;;;;10.07;4.30;;;;;;;;;;5027805;28;20041;-52
2022/06/21 04:39:32;;;;;;;10.65;4.18;;;;;;;;;;5023645;28;20096;-52
2022/06/21 04:42:02;;;;;;;8.25;4.03;;;;;;;;;;5025663;28;20400;-50
2022/06/21 04:44:30;;;;;;;9.35;4.45;;;;;;;;;;5026942;28;20031;-52
2022/06/21 04:47:05;;;;;;;12.27;4.35;;;;;;;;;;5025073;28;20033;-53
2022/06/21 04:49:37;;;;;;;8.57;4.30;;;;;;;;;;5027060;28;20083;-52
2022/06/21 04:52:03;;;;;;;11.88;4.18;;;;;;;;;;5031646;28;20532;-51
2022/06/21 04:54:31;;;;;;;9.93;4.38;;;;;;;;;;5030127;28;20478;-54
2022/06/21 04:57:16;;;;;;;10.27;3.85;;;;;;;;;;5030008;28;20048;-52
2022/06/21 04:59:42;;;;;;;10.15;3.67;;;;;;;;;;5033694;28;20036;-53
2022/06/21 05:02:13;;;;;;;10.50;3.88;;;;;;;;;;5028432;28;20041;-53
2022/06/21 05:04:40;;;;;;;7.85;3.88;;;;;;;;;;5031243;28;20055;-54
2022/06/21 05:07:10;;;;;;;14.20;4.55;;;;;;;;;;5032081;28;20491;-54
2022/06/21 05:09:36;;;;;;;11.95;4.20;;;;;;;;;;5030860;28;20025;-56
2022/06/21 05:12:12;;;;;;;14.65;4.38;;;;;;;;;;5026133;28;20503;-53
2022/06/21 05:14:40;;;;;;;11.35;4.22;;;;;;;;;;5030936;28;20029;-51
2022/06/21 05:17:07;;;;;;;10.52;4.07;;;;;;;;;;5030454;28;20080;-52
2022/06/21 05:19:35;;;;;;;12.75;4.70;;;;;;;;;;5030821;28;20036;-54
2022/06/21 05:22:02;;;;;;;7.88;3.58;;;;;;;;;;5028952;28;20098;-51
2022/06/21 05:24:29;;;;;;;5.88;3.45;;;;;;;;;;5032322;28;20033;-51
2022/06/21 05:26:55;;;;;;;7.47;3.35;;;;;;;;;;5033104;28;20061;-54
2022/06/21 05:29:25;;;;;;;14.23;3.60;;;;;;;;;;5031918;28;20491;-52
2022/06/21 05:31:54;;;;;;;12.43;3.85;;;;;;;;;;5031636;28;20031;-54
2022/06/21 05:34:25;;;;;;;6.43;3.03;;;;;;;;;;5036996;28;20475;-53
2022/06/21 05:37:00;;;;;;;10.80;3.80;;;;;;;;;;5038018;28;20029;-52
2022/06/21 05:39:30;;;;;;;7.40;2.90;;;;;;;;;;5031234;28;20404;-52
2022/06/21 05:41:58;;;;;;;6.57;2.95;;;;;;;;;;5029940;28;20036;-54
2022/06/21 05:44:35;;;;;;;13.77;3.13;;;;;;;;;;5029448;28;20298;-53
2022/06/21 05:47:05;;;;;;;11.05;3.25;;;;;;;;;;5028387;28;20458;-54
2022/06/21 05:49:33;;;;;;;6.57;2.90;;;;;;;;;;5030295;28;20436;-56
2022/06/21 05:52:01;;;;;;;10.65;2.97;;;;;;;;;;5030677;28;20029;-56
2022/06/21 05:54:34;;;;;;;7.57;2.78;;;;;;;;;;5032517;28;20108;-56
2022/06/21 05:57:02;;;;;;;10.43;3.20;;;;;;;;;;5031418;28;20029;-56
2022/06/21 05:59:28;;;;;;;7.63;3.00;;;;;;;;;;5034405;28;20031;-55
2022/06/21 06:01:57;;;;;;;9.40;3.13;;;;;;;;;;5026975;28;20493;-54
2022/06/21 06:04:31;;;;;;;12.75;2.97;;;;;;;;;;5029315;28;20022;-53
2022/06/21 06:06:57;;;;;;;11.18;3.03;;;;;;;;;;5032993;28;20051;-53
2022/06/21 06:09:29;;;;;;;8.30;2.90;;;;;;;;;;5030970;28;20025;-54
2022/06/21 06:12:12;;;;;;;9.68;2.80;;;;;;;;;;5028137;28;20119;-55
2022/06/21 06:14:42;;;;;;;13.85;2.55;;;;;;;;;;5026851;28;20030;-56
2022/06/21 06:17:15;;;;;;;12.40;3.25;;;;;;;;;;5030876;28;20035;-55
2022/06/21 06:19:44;;;;;;;6.40;2.08;;;;;;;;;;5034376;28;20032;-55
2022/06/21 06:22:29;;;;;;;6.25;2.72;;;;;;;;;;5036603;28;20111;-55
2022/06/21 06:24:59;;;;;;;11.02;3.33;;;;;;;;;;5029416;28;20041;-55
2022/06/21 06:27:45;;;;;;;9.68;2.90;;;;;;;;;;5031518;28;20059;-55
2022/06/21 06:30:13;;;;;;;11.60;3.42;;;;;;;;;;5030911;28;20025;-55
2022/06/21 06:32:41;;;;;;;9.35;3.15;;;;;;;;;;5032845;28;20040;-56
2022/06/21 06:35:19;;;;;;;8.20;2.50;;;;;;;;;;5033905;28;20479;-56
2022/06/21 06:37:45;;;;;;;11.82;3.22;;;;;;;;;;5036773;28;20033;-56
2022/06/21 06:40:30;;;;;;;8.30;2.55;;;;;;;;;;5029382;28;20103;-54
2022/06/21 06:43:10;;;;;;;5.35;2.72;;;;;;;;;;5034700;28;20065;-56
2022/06/21 06:45:37;;;;;;;11.20;2.53;;;;;;;;;;5012930;28;20128;-56
2022/06/21 06:48:06;;;;;;;5.43;2.42;;;;;;;;;;5034845;28;20767;-55
2022/06/21 06:50:38;;;;;;;8.05;2.60;;;;;;;;;;5010517;28;20147;-55
2022/06/21 06:53:10;;;;;;;12.52;3.15;;;;;;;;;;5033402;28;20101;-56
2022/06/21 06:55:39;;;;;;;10.88;2.45;;;;;;;;;;5030382;28;20041;-55
2022/06/21 06:58:07;;;;;;;7.93;2.33;;;;;;;;;;5035449;28;20404;-55
2022/06/21 07:00:44;;;;;;;10.30;2.03;;;;;;;;;;5033019;28;20696;-55
2022/06/21 07:03:13;;;;;;;8.95;2.63;;;;;;;;;;5029013;28;20025;-55
2022/06/21 07:05:58;;;;;;;8.23;1.70;;;;;;;;;;5027647;28;20033;-54
2022/06/21 07:08:36;;;;;;;10.00;2.17;;;;;;;;;;5027420;28;20388;-55
2022/06/21 07:11:04;;;;;;;5.68;2.35;;;;;;;;;;5025781;28;20464;-57
2022/06/21 07:13:32;;;;;;;8.27;2.25;;;;;;;;;;5025512;28;20101;-56
2022/06/21 07:16:02;;;;;;;5.47;2.28;;;;;;;;;;5029988;28;20539;-58
2022/06/21 07:18:31;;;;;;;12.65;2.10;;;;;;;;;;5028907;28;20029;-57
2022/06/21 07:20:58;;;;;;;9.07;2.58;;;;;;;;;;5028376;28;20495;-57
2022/06/21 07:23:26;;;;;;;11.93;1.88;;;;;;;;;;5027733;28;20064;-57
2022/06/21 07:26:15;;;;;;;11.93;1.90;;;;;;;;;;5027556;28;20049;-58
2022/06/21 07:28:44;;;;;;;7.35;1.90;;;;;;;;;;5029511;28;20516;-57
2022/06/21 07:31:13;;;;;;;8.15;1.58;;;;;;;;;;5028738;28;20022;-57
2022/06/21 07:33:46;;;;;;;10.75;2.10;;;;;;;;;;5024929;28;20061;-58
2022/06/21 07:36:18;;;;;;;7.47;1.65;;;;;;;;;;5026031;28;20487;-58
2022/06/21 07:38:47;;;;;;;7.97;1.77;;;;;;;;;;5031679;28;20071;-55
2022/06/21 07:41:23;;;;;;;6.75;1.30;;;;;;;;;;5031160;28;20025;-58
2022/06/21 07:43:50;;;;;;;7.65;1.75;;;;;;;;;;5030896;28;20033;-57
2022/06/21 07:46:27;;;;;;;5.47;1.67;;;;;;;;;;5030551;28;20036;-57
2022/06/21 07:49:07;;;;;;;11.10;2.00;;;;;;;;;;5030255;28;20037;-57
2022/06/21 07:51:37;;;;;;;8.00;1.23;;;;;;;;;;5035224;28;20028;-56
2022/06/21 07:54:09;;;;;;;7.72;1.40;;;;;;;;;;5025737;28;20029;-57
2022/06/21 07:56:42;;;;;;;4.28;1.20;;;;;;;;;;5030029;28;20637;-57
2022/06/21 07:59:21;;;;;;;3.05;1.05;;;;;;;;;;5030066;28;20026;-58
2022/06/21 08:07:20;;;;;;;7.03;1.40;;;;;;;;;;5023240;28;20538;-58
2022/06/21 08:09:49;;;;;;;4.25;1.25;;;;;;;;;;5029290;28;20018;-57
2022/06/21 08:12:15;;;;;;;5.22;1.13;;;;;;;;;;5030479;28;20024;-57
2022/06/21 08:14:42;;;;;;;3.28;1.13;;;;;;;;;;5030897;28;20026;-57
2022/06/21 08:17:17;;;;;;;4.75;1.33;;;;;;;;;;5030874;28;20029;-57
2022/06/21 08:19:49;;;;;;;5.78;1.10;;;;;;;;;;5030754;28;20034;-57
2022/06/21 08:22:20;;;;;;;3.58;1.20;;;;;;;;;;5029825;28;20467;-57
2022/06/21 08:24:52;;;;;;;7.38;0.98;;;;;;;;;;5021140;28;20057;-57
2022/06/21 08:27:29;;;;;;;5.88;0.90;;;;;;;;;;5030425;28;20048;-56
2022/06/21 08:29:58;;;;;;;6.40;1.33;;;;;;;;;;5030195;28;20028;-57
2022/06/21 08:32:23;;;;;;;3.33;0.80;;;;;;;;;;5035859;28;20035;-56
2022/06/21 08:34:52;;;;;;;4.15;1.02;;;;;;;;;;5030838;28;20029;-57
2022/06/21 08:37:25;;;;;;;7.05;1.23;;;;;;;;;;5028927;28;20033;-57
2022/06/21 08:39:54;;;;;;;3.63;0.90;;;;;;;;;;5028933;28;20038;-56
2022/06/21 08:42:43;;;;;;;5.22;1.55;;;;;;;;;;5029887;28;20036;-56
2022/06/21 08:45:41;;;;;;;5.55;0.95;;;;;;;;;;5030434;28;20033;-58
2022/06/21 08:48:27;;;;;;;4.38;1.42;;;;;;;;;;5030692;28;20380;-57
2022/06/21 08:51:10;;;;;;;4.25;0.80;;;;;;;;;;5030293;28;20026;-56
2022/06/21 08:53:45;;;;;;;3.72;0.70;;;;;;;;;;5029583;28;20025;-57
2022/06/21 08:56:15;;;;;;;4.35;0.95;;;;;;;;;;5033454;28;20030;-57
2022/06/21 08:59:00;;;;;;;3.55;1.48;;;;;;;;;;4996307;28;20040;-58
2022/06/21 09:01:45;;;;;;;5.85;1.17;;;;;;;;;;5030010;28;20113;-57
2022/06/21 09:04:29;;;;;;;3.45;0.90;;;;;;;;;;5030294;28;20484;-58
2022/06/21 09:07:06;;;;;;;6.30;0.90;;;;;;;;;;5030544;28;20037;-58
2022/06/21 09:09:39;;;;;;;2.70;1.27;;;;;;;;;;5030070;28;20022;-58
2022/06/21 09:12:20;;;;;;;4.22;0.80;;;;;;;;;;5029790;28;20335;-57
2022/06/21 09:15:02;;;;;;;4.20;0.63;;;;;;;;;;5029389;28;20157;-58
2022/06/21 09:17:32;;;;;;;10.70;1.30;;;;;;;;;;5030071;28;20420;-57
2022/06/21 09:20:17;;;;;;;3.42;0.85;;;;;;;;;;5029888;28;20029;-58
2022/06/21 09:23:02;;;;;;;2.83;0.70;;;;;;;;;;5030503;28;20064;-58
2022/06/21 09:25:45;;;;;;;5.22;0.90;;;;;;;;;;5027524;28;20467;-58
2022/06/21 09:28:29;;;;;;;2.10;0.57;;;;;;;;;;5030019;28;20026;-57
2022/06/21 09:31:00;;;;;;;4.57;1.02;;;;;;;;;;5028591;28;20100;-58
2022/06/21 09:33:47;;;;;;;5.25;0.88;;;;;;;;;;5028952;28;20045;-59
2022/06/21 09:36:24;;;;;;;3.83;1.00;;;;;;;;;;5025808;28;20079;-57
2022/06/21 09:38:59;;;;;;;1.88;0.50;;;;;;;;;;5033817;28;20064;-57
2022/06/21 09:41:39;;;;;;;3.67;1.38;;;;;;;;;;5032119;28;20037;-57
2022/06/21 09:44:11;;;;;;;4.25;0.70;;;;;;;;;;5022551;28;20471;-57
2022/06/21 09:47:01;;;;;;;3.78;0.70;;;;;;;;;;5033744;28;20041;-55
2022/06/21 09:49:35;;;;;;;3.67;0.65;;;;;;;;;;5025384;28;20025;-58
2022/06/21 09:52:20;;;;;;;5.43;0.65;;;;;;;;;;5033126;28;20029;-57
2022/06/21 09:55:06;;;;;;;3.08;0.73;;;;;;;;;;5033391;28;20064;-57
2022/06/21 09:57:41;;;;;;;2.72;0.57;;;;;;;;;;5024261;28;20047;-58
2022/06/21 10:00:11;;;;;;;5.07;0.75;;;;;;;;;;5033023;28;20129;-58
2022/06/21 10:02:48;;;;;;;3.20;1.08;;;;;;;;;;5033248;28;20480;-57
2022/06/21 10:05:25;;;;;;;4.88;0.70;;;;;;;;;;5032002;28;20556;-58
2022/06/21 10:07:56;;;;;;;3.90;0.98;;;;;;;;;;5031747;28;20021;-58
2022/06/21 10:10:25;;;;;;;3.05;0.63;;;;;;;;;;5031045;28;20025;-58
2022/06/21 10:13:11;;;;;;;6.70;1.15;;;;;;;;;;5032425;28;20052;-57
2022/06/21 10:15:53;;;;;;;3.80;0.85;;;;;;;;;;5028318;28;20033;-58
2022/06/21 10:18:28;;;;;;;5.13;1.15;;;;;;;;;;5032964;28;20044;-59
2022/06/21 10:21:06;;;;;;;1.65;0.60;;;;;;;;;;5032938;28;20478;-58
2022/06/21 10:23:48;;;;;;;3.50;0.60;;;;;;;;;;5033028;28;20441;-59
2022/06/21 10:26:23;;;;;;;6.93;0.70;;;;;;;;;;5020379;28;20103;-58
2022/06/21 10:28:55;;;;;;;2.13;0.88;;;;;;;;;;5032776;28;20043;-56
2022/06/21 10:31:30;;;;;;;6.50;0.80;;;;;;;;;;5032901;28;20025;-56
2022/06/21 10:34:15;;;;;;;2.03;0.68;;;;;;;;;;5031285;28;20033;-58
2022/06/21 10:36:51;;;;;;;6.82;0.93;;;;;;;;;;5033011;28;20102;-57
2022/06/21 10:39:36;;;;;;;7.95;1.15;;;;;;;;;;5020671;28;20459;-58
2022/06/21 10:42:46;;;;;;;3.42;0.70;;;;;;;;;;5032441;28;20033;-57
2022/06/21 10:45:12;;;;;;;3.15;0.82;;;;;;;;;;5008766;28;20045;-57
2022/06/21 10:47:45;;;;;;;3.15;0.90;;;;;;;;;;5031989;28;20468;-58
2022/06/21 10:50:30;;;;;;;3.97;0.85;;;;;;;;;;5032059;28;20022;-58
2022/06/21 10:53:01;;;;;;;4.97;0.75;;;;;;;;;;5032454;28;20091;-59
2022/06/21 10:55:33;;;;;;;4.63;0.75;;;;;;;;;;5032786;28;20028;-57
2022/06/21 10:58:12;;;;;;;5.47;0.80;;;;;;;;;;5032258;28;20400;-57
2022/06/21 11:03:28;;;;;;;1.75;0.47;;;;;;;;;;5032012;28;20408;-58
2022/06/21 11:06:15;;;;;;;4.32;0.70;;;;;;;;;;5032094;28;20087;-57
2022/06/21 11:08:57;;;;;;;3.75;0.65;;;;;;;;;;5032030;28;20025;-58
2022/06/21 11:11:30;;;;;;;2.95;0.73;;;;;;;;;;5024314;28;20063;-58
2022/06/21 11:14:11;;;;;;;1.98;0.65;;;;;;;;;;5030111;28;20029;-58
2022/06/21 11:16:52;;;;;;;5.95;0.77;;;;;;;;;;5031219;28;20404;-57
2022/06/21 11:19:25;;;;;;;3.25;0.65;;;;;;;;;;5031961;28;20025;-57
2022/06/21 11:22:03;;;;;;;2.75;0.85;;;;;;;;;;5031782;28;20021;-59
2022/06/21 11:24:49;;;;;;;3.80;0.43;;;;;;;;;;5031979;28;20037;-57
2022/06/21 11:27:35;;;;;;;6.32;0.63;;;;;;;;;;5031730;28;20029;-58
2022/06/21 11:30:07;;;;;;;14.10;0.93;;;;;;;;;;5031584;28;20033;-57
2022/06/21 11:32:42;;;;;;;4.07;0.82;;;;;;;;;;5030735;28;20034;-58
2022/06/21 11:35:11;;;;;;;1.70;0.70;;;;;;;;;;5031749;28;20647;-57
2022/06/21 11:37:45;;;;;;;3.15;0.77;;;;;;;;;;5031333;28;20376;-58
2022/06/21 11:40:29;;;;;;;4.40;0.75;;;;;;;;;;5031460;28;20574;-58
2022/06/21 11:42:59;;;;;;;1.92;0.82;;;;;;;;;;5026527;28;20037;-57
2022/06/21 11:45:33;;;;;;;3.17;0.60;;;;;;;;;;5029424;28;20033;-56
2022/06/21 11:48:21;;;;;;;2.53;0.82;;;;;;;;;;5030159;28;20393;-57
2022/06/21 11:51:00;;;;;;;2.13;0.40;;;;;;;;;;5021243;28;20500;-58
2022/06/21 11:53:34;;;;;;;3.33;0.70;;;;;;;;;;5028388;28;20033;-58
2022/06/21 11:56:03;;;;;;;3.53;0.75;;;;;;;;;;5031222;28;20033;-59
2022/06/21 11:58:32;;;;;;;3.30;0.70;;;;;;;;;;5013119;28;20035;-58
2022/06/21 12:01:01;;;;;;;2.03;0.60;;;;;;;;;;5031061;28;20033;-58
2022/06/21 12:03:36;;;;;;;2.72;0.70;;;;;;;;;;5030833;28;20021;-59
2022/06/21 12:06:08;;;;;;;2.88;0.70;;;;;;;;;;5031263;28;20034;-57
2022/06/21 12:08:44;;;;;;;4.47;0.63;;;;;;;;;;5029722;28;20022;-58
2022/06/21 12:11:28;;;;;;;3.33;0.40;;;;;;;;;;5030402;28;20033;-59
2022/06/21 12:14:04;;;;;;;2.75;0.80;;;;;;;;;;5027903;28;20020;-58
2022/06/21 12:16:43;;;;;;;3.03;0.60;;;;;;;;;;5024087;28;20044;-57
2022/06/21 12:19:15;;;;;;;1.48;0.50;;;;;;;;;;5027031;28;20030;-57
2022/06/21 12:21:52;;;;;;;4.70;0.68;;;;;;;;;;5030670;28;20129;-58
2022/06/21 12:24:21;;;;;;;3.13;0.70;;;;;;;;;;5006981;28;20048;-59
2022/06/21 12:26:48;;;;;;;3.20;0.80;;;;;;;;;;5016822;28;20061;-58
2022/06/21 12:29:15;;;;;;;3.60;0.80;;;;;;;;;;5028750;28;20112;-59
2022/06/21 12:31:47;;;;;;;2.92;0.60;;;;;;;;;;5029292;28;20072;-58
2022/06/21 12:34:33;;;;;;;2.55;0.68;;;;;;;;;;5030075;28;20029;-58
2022/06/21 12:37:18;;;;;;;1.90;0.50;;;;;;;;;;5026097;28;20048;-58
2022/06/21 12:39:50;;;;;;;4.65;0.50;;;;;;;;;;5030552;28;20034;-59
2022/06/21 12:42:33;;;;;;;3.65;0.52;;;;;;;;;;5029490;28;20029;-59
2022/06/21 12:44:59;;;;;;;;;;;;;;;;;;5030726;28;20078;-59
2022/06/21 12:47:37;;;;;;;3.63;0.70;;;;;;;;;;5030599;28;19913;-58
2022/06/21 12:50:21;;;;;;;3.17;1.02;;;;;;;;;;5031872;28;20021;-57
2022/06/21 12:52:54;;;;;;;2.47;0.55;;;;;;;;;;5029778;28;20097;-58
2022/06/21 12:55:28;;;;;;;2.47;0.50;;;;;;;;;;5030932;28;20032;-59
2022/06/21 12:58:03;;;;;;;1.92;0.60;;;;;;;;;;5029001;28;20300;-58
2022/06/21 13:00:47;;;;;;;4.90;0.70;;;;;;;;;;5029689;28;20029;-58
2022/06/21 13:03:33;;;;;;;1.70;0.32;;;;;;;;;;5025848;28;20388;-58
2022/06/21 13:06:11;;;;;;;3.00;0.75;;;;;;;;;;4985864;28;20050;-60
2022/06/21 13:08:40;;;;;;;3.33;0.73;;;;;;;;;;5030246;28;20021;-59
2022/06/21 13:11:24;;;;;;;2.75;0.65;;;;;;;;;;5043315;28;20045;-58
2022/06/21 13:14:08;;;;;;;1.42;0.43;;;;;;;;;;5026281;28;20503;-59
2022/06/21 13:16:46;;;;;;;4.25;0.50;;;;;;;;;;5029502;28;20388;-58
2022/06/21 13:19:21;;;;;;;3.60;0.40;;;;;;;;;;5028119;28;20030;-57
2022/06/21 13:22:10;;;;;;;2.17;0.57;;;;;;;;;;5027276;28;20543;-59
2022/06/21 13:24:49;;;;;;;2.05;0.63;;;;;;;;;;5008952;28;20082;-58
2022/06/21 13:27:36;;;;;;;2.50;0.50;;;;;;;;;;5029338;28;20388;-59
2022/06/21 13:30:08;;;;;;;4.13;0.47;;;;;;;;;;5032756;28;20033;-59
2022/06/21 13:32:42;;;;;;;2.97;0.80;;;;;;;;;;5035889;28;20018;-58
2022/06/21 13:35:30;;;;;;;4.90;0.60;;;;;;;;;;5023455;28;20088;-59
2022/06/21 13:38:07;;;;;;;2.78;0.40;;;;;;;;;;5013163;28;20040;-57
2022/06/21 13:40:33;;;;;;;1.63;0.50;;;;;;;;;;5032455;28;20037;-58
2022/06/21 13:43:07;;;;;;;2.72;0.60;;;;;;;;;;5032744;28;20817;-59
2022/06/21 13:45:43;;;;;;;1.92;0.47;;;;;;;;;;5033830;28;20022;-59
2022/06/21 13:48:12;;;;;;;4.22;0.50;;;;;;;;;;5034057;28;20041;-56
2022/06/21 13:50:57;;;;;;;1.98;0.40;;;;;;;;;;5031873;28;20033;-56
2022/06/21 13:53:26;;;;;;;2.20;0.60;;;;;;;;;;5034630;28;20478;-58
2022/06/21 13:56:11;;;;;;;2.17;0.40;;;;;;;;;;5032991;28;20026;-57
2022/06/21 13:58:39;;;;;;;3.63;0.77;;;;;;;;;;5033193;28;20103;-56
2022/06/21 14:01:10;;;;;;;1.23;0.40;;;;;;;;;;5032681;28;20036;-56
2022/06/21 14:04:03;;;;;;;4.10;0.45;;;;;;;;;;5033592;28;20112;-56
2022/06/21 14:06:32;;;;;;;1.35;0.40;;;;;;;;;;5027100;28;20034;-55
2022/06/21 14:09:09;;;;;;;4.68;0.60;;;;;;;;;;5024629;28;20072;-56
2022/06/21 14:11:39;;;;;;;1.10;0.20;;;;;;;;;;5033124;28;20017;-56
2022/06/21 14:14:10;;;;;;;1.40;0.50;;;;;;;;;;5029986;28;20091;-57
2022/06/21 14:16:49;;;;;;;1.85;0.32;;;;;;;;;;5028521;28;20523;-58
2022/06/21 14:19:21;;;;;;;4.90;0.40;;;;;;;;;;5028144;28;20029;-58
2022/06/21 14:21:47;;;;;;;1.95;0.47;;;;;;;;;;5026659;28;20029;-56
2022/06/21 14:24:39;;;;;;;7.70;0.63;;;;;;;;;;5028608;28;20029;-57
2022/06/21 14:27:08;;;;;;;2.53;0.30;;;;;;;;;;4995958;28;20061;-58
2022/06/21 14:29:53;;;;;;;1.63;0.30;;;;;;;;;;5027868;28;20087;-56
2022/06/21 14:32:41;;;;;;;2.35;0.45;;;;;;;;;;5021905;28;20026;-57
2022/06/21 14:35:16;;;;;;;2.03;0.30;;;;;;;;;;5031928;28;20039;-56
2022/06/21 14:37:45;;;;;;;3.08;0.57;;;;;;;;;;5025232;28;20043;-57
2022/06/21 14:40:29;;;;;;;1.10;0.40;;;;;;;;;;5030653;28;20044;-58
2022/06/21 14:42:58;;;;;;;2.40;0.40;;;;;;;;;;5028743;28;20045;-57
2022/06/21 14:45:32;;;;;;;1.23;0.50;;;;;;;;;;5026881;28;20025;-57
2022/06/21 14:48:01;;;;;;;1.63;0.75;;;;;;;;;;5024364;28;20071;-56
2022/06/21 14:50:41;;;;;;;1.73;0.30;;;;;;;;;;5026929;28;20076;-57
2022/06/21 14:53:13;;;;;;;1.52;0.50;;;;;;;;;;5026700;28;20107;-56
2022/06/21 14:55:39;;;;;;;;;;;;;;;;;;5026352;28;20060;-55
2022/06/21 14:58:17;;;;;;;1.50;0.45;;;;;;;;;;5035781;28;20435;-59
2022/06/21 15:00:57;;;;;;;2.55;0.63;;;;;;;;;;5033966;28;20025;-59
2022/06/21 15:03:31;;;;;;;0.98;0.60;;;;;;;;;;5027148;28;20031;-59
2022/06/21 15:06:11;;;;;;;2.80;0.80;;;;;;;;;;5029777;28;20033;-58
2022/06/21 15:08:50;;;;;;;4.45;0.52;;;;;;;;;;5028497;28;20032;-59
2022/06/21 15:11:21;;;;;;;1.15;0.40;;;;;;;;;;5021491;28;20037;-58
2022/06/21 15:14:02;;;;;;;3.63;0.60;;;;;;;;;;5025550;28;20030;-58
2022/06/21 15:16:31;;;;;;;2.28;0.50;;;;;;;;;;5030936;28;20420;-58
2022/06/21 15:21:57;;;;;;;4.57;0.52;;;;;;;;;;5026723;28;20048;-57
2022/06/21 15:24:26;;;;;;;2.75;0.50;;;;;;;;;;5025179;28;20065;-58
2022/06/21 15:27:00;;;;;;;3.75;0.50;;;;;;;;;;5019419;28;20067;-58
2022/06/21 15:29:34;;;;;;;3.70;0.88;;;;;;;;;;5015630;28;20504;-59
2022/06/21 15:32:03;;;;;;;2.75;0.60;;;;;;;;;;5029728;28;20422;-58
2022/06/21 15:34:34;;;;;;;8.95;0.82;;;;;;;;;;5027051;28;20046;-58